createdAt,value
2023-03-29T00:02:07.715Z,100827.03
2023-03-29T00:04:34.619Z,100841.78
2023-03-29T00:07:04.294Z,100836.81
2023-03-29T00:09:32.990Z,100847.28
2023-03-29T00:12:00.233Z,100829.56
2023-03-29T00:14:27.071Z,100840.16
2023-03-29T00:16:53.712Z,100840.97
2023-03-29T00:19:20.450Z,100833.84
2023-03-29T00:21:47.073Z,100833.25
2023-03-29T00:24:13.624Z,100793.75
2023-03-29T00:26:40.320Z,100827.75
2023-03-29T00:29:06.855Z,100822.53
2023-03-29T00:31:33.431Z,100782.63
2023-03-29T00:34:00.087Z,100809.19
2023-03-29T00:36:28.977Z,100797.41
2023-03-29T00:38:56.514Z,100814.19
2023-03-29T00:41:24.230Z,100807.16
2023-03-29T00:43:52.309Z,100818.56
2023-03-29T00:46:19.046Z,100808.69
2023-03-29T00:48:46.513Z,100806.75
2023-03-29T00:51:14.351Z,100785.91
2023-03-29T00:53:44.050Z,100799.72
2023-03-29T00:56:15.389Z,100780.00
2023-03-29T00:59:05.618Z,100798.31
2023-03-29T01:01:42.462Z,100785.38
2023-03-29T01:04:37.553Z,100786.78
2023-03-29T01:07:17.845Z,100777.94
2023-03-29T01:09:45.920Z,100768.38
2023-03-29T01:12:18.327Z,100758.09
2023-03-29T01:14:48.613Z,100758.88
2023-03-29T01:17:15.970Z,100744.88
2023-03-29T01:19:45.963Z,100758.06
2023-03-29T01:22:22.538Z,100754.84
2023-03-29T01:25:05.241Z,100744.75
2023-03-29T01:27:50.491Z,100742.19
2023-03-29T01:30:36.246Z,100703.88
2023-03-29T01:33:08.409Z,100734.28
2023-03-29T01:35:44.671Z,100738.75
2023-03-29T01:38:30.520Z,100721.41
2023-03-29T01:40:57.132Z,100693.97
2023-03-29T01:43:27.922Z,100722.16
2023-03-29T01:46:12.443Z,100712.91
2023-03-29T01:48:50.908Z,100703.13
2023-03-29T01:51:22.553Z,100729.88
2023-03-29T01:54:04.700Z,100730.53
2023-03-29T01:56:32.081Z,100717.78
2023-03-29T01:59:02.008Z,100723.91
2023-03-29T02:01:34.469Z,100725.03
2023-03-29T02:04:02.985Z,100710.84
2023-03-29T02:06:32.726Z,100722.38
2023-03-29T02:09:00.263Z,100690.16
2023-03-29T02:11:29.239Z,100703.75
2023-03-29T02:13:56.894Z,100698.88
2023-03-29T02:16:23.438Z,100685.13
2023-03-29T02:18:50.526Z,100702.91
2023-03-29T02:21:24.885Z,100707.28
2023-03-29T02:23:51.541Z,100693.47
2023-03-29T02:26:18.801Z,100681.06
2023-03-29T02:28:46.584Z,100685.91
2023-03-29T02:31:37.298Z,100679.56
2023-03-29T02:34:26.650Z,100677.34
2023-03-29T02:36:54.703Z,100681.72
2023-03-29T02:39:21.331Z,100658.41
2023-03-29T02:41:49.527Z,100680.69
2023-03-29T02:44:27.265Z,100674.06
2023-03-29T02:46:57.021Z,100669.31
2023-03-29T02:49:23.730Z,100651.81
2023-03-29T02:51:52.706Z,100666.25
2023-03-29T02:54:23.790Z,100671.94
2023-03-29T02:56:58.562Z,100663.44
2023-03-29T02:59:25.747Z,100661.16
2023-03-29T03:01:52.756Z,100667.91
2023-03-29T03:04:22.927Z,100673.81
2023-03-29T03:06:49.632Z,100676.44
2023-03-29T03:09:16.233Z,100683.16
2023-03-29T03:11:45.802Z,100672.38
2023-03-29T03:14:12.609Z,100648.56
2023-03-29T03:16:39.350Z,100668.28
2023-03-29T03:19:06.593Z,100665.19
2023-03-29T03:21:34.038Z,100630.44
2023-03-29T03:24:00.676Z,100665.81
2023-03-29T03:26:30.010Z,100675.19
2023-03-29T03:28:57.138Z,100659.94
2023-03-29T03:31:42.949Z,100644.06
2023-03-29T03:34:13.193Z,100674.97
2023-03-29T03:36:55.610Z,100674.34
2023-03-29T03:39:22.828Z,100601.78
2023-03-29T03:41:49.948Z,100655.16
2023-03-29T03:44:18.027Z,100658.09
2023-03-29T03:46:47.310Z,100665.19
2023-03-29T03:49:13.931Z,100654.00
2023-03-29T03:51:45.314Z,100660.72
2023-03-29T03:54:12.305Z,100658.09
2023-03-29T03:57:07.875Z,100644.44
2023-03-29T03:59:42.150Z,100666.84
2023-03-29T04:02:12.320Z,100658.47
2023-03-29T04:04:40.536Z,100662.59
2023-03-29T04:07:17.898Z,100643.56
2023-03-29T04:10:03.820Z,100657.09
2023-03-29T04:13:02.676Z,100646.72
2023-03-29T04:15:33.007Z,100660.84
2023-03-29T04:18:07.500Z,100654.00
2023-03-29T04:20:40.702Z,100656.47
2023-03-29T04:23:07.686Z,100622.53
2023-03-29T04:25:36.366Z,100662.19
2023-03-29T04:28:22.914Z,100635.56
2023-03-29T04:31:05.977Z,100650.06
2023-03-29T04:34:00.440Z,100658.44
2023-03-29T04:36:28.058Z,100666.50
2023-03-29T04:38:54.670Z,100652.75
2023-03-29T04:41:21.647Z,100618.06
2023-03-29T04:43:48.227Z,100652.16
2023-03-29T04:46:26.323Z,100657.78
2023-03-29T04:48:58.890Z,100635.38
2023-03-29T04:51:47.725Z,100633.69
2023-03-29T04:54:16.946Z,100661.97
2023-03-29T04:57:06.218Z,100658.19
2023-03-29T04:59:55.698Z,100646.31
2023-03-29T05:02:45.342Z,100665.81
2023-03-29T05:05:13.300Z,100652.44
2023-03-29T05:07:40.900Z,100674.06
2023-03-29T05:10:09.238Z,100666.44
2023-03-29T05:12:36.631Z,100675.81
2023-03-29T05:15:04.909Z,100671.94
2023-03-29T05:17:32.455Z,100659.53
2023-03-29T05:20:10.212Z,100675.31
2023-03-29T05:22:38.296Z,100656.94
2023-03-29T05:25:08.001Z,100663.44
2023-03-29T05:27:34.778Z,100666.66
2023-03-29T05:30:08.847Z,100664.94
2023-03-29T05:32:55.718Z,100673.19
2023-03-29T05:35:26.238Z,100669.50
2023-03-29T05:37:55.208Z,100673.97
2023-03-29T05:40:22.215Z,100673.53
2023-03-29T05:43:09.107Z,100653.44
2023-03-29T05:45:35.808Z,100662.00
2023-03-29T05:48:03.952Z,100663.09
2023-03-29T05:50:31.971Z,100659.97
2023-03-29T05:52:59.411Z,100678.78
2023-03-29T05:55:26.026Z,100667.31
2023-03-29T05:57:53.002Z,100673.81
2023-03-29T06:00:24.267Z,100664.03
2023-03-29T06:03:03.724Z,100676.47
2023-03-29T06:05:40.426Z,100671.97
2023-03-29T06:08:07.145Z,100688.66
2023-03-29T06:11:06.565Z,100689.22
2023-03-29T06:13:52.829Z,100679.34
2023-03-29T06:16:19.891Z,100658.69
2023-03-29T06:18:46.499Z,100686.47
2023-03-29T06:21:15.925Z,100684.44
2023-03-29T06:23:43.018Z,100679.09
2023-03-29T06:26:10.568Z,100679.88
2023-03-29T06:28:37.912Z,100655.56
2023-03-29T06:31:05.233Z,100679.84
2023-03-29T06:33:38.094Z,100675.69
2023-03-29T06:36:24.274Z,100680.88
2023-03-29T06:38:51.347Z,100659.47
2023-03-29T06:41:24.921Z,100643.81
2023-03-29T06:44:06.976Z,100685.03
2023-03-29T06:46:41.116Z,100671.53
2023-03-29T06:49:08.462Z,100686.13
2023-03-29T06:51:50.256Z,100668.03
2023-03-29T06:54:16.991Z,100688.31
2023-03-29T06:56:59.538Z,100647.75
2023-03-29T06:59:28.810Z,100681.50
2023-03-29T07:02:07.383Z,100698.50
2023-03-29T07:04:46.155Z,100673.69
2023-03-29T07:07:27.321Z,100678.06
2023-03-29T07:10:07.433Z,100707.97
2023-03-29T07:13:02.935Z,100707.28
2023-03-29T07:15:29.941Z,100695.97
2023-03-29T07:18:22.429Z,100710.84
2023-03-29T07:20:49.408Z,100716.34
2023-03-29T07:23:16.270Z,100697.97
2023-03-29T07:25:44.755Z,100712.13
2023-03-29T07:28:11.409Z,100708.38
2023-03-29T07:30:38.679Z,100698.19
2023-03-29T07:33:14.344Z,100706.97
2023-03-29T07:35:49.522Z,100712.97
2023-03-29T07:38:16.100Z,100718.56
2023-03-29T07:40:48.095Z,100717.16
2023-03-29T07:43:47.310Z,100719.56
2023-03-29T07:46:17.474Z,100714.47
2023-03-29T07:48:44.150Z,100719.38
2023-03-29T07:51:13.744Z,100703.22
2023-03-29T07:53:53.695Z,100700.88
2023-03-29T07:56:38.465Z,100735.66
2023-03-29T07:59:16.903Z,100684.41
2023-03-29T08:01:47.588Z,100710.31
2023-03-29T08:04:26.439Z,100713.47
2023-03-29T08:07:22.556Z,100713.88
2023-03-29T08:10:16.699Z,100707.19
2023-03-29T08:13:04.062Z,100720.19
2023-03-29T08:15:39.353Z,100697.41
2023-03-29T08:18:16.072Z,100719.19
2023-03-29T08:20:42.740Z,100716.81
2023-03-29T08:23:09.546Z,100709.59
2023-03-29T08:26:09.290Z,100702.31
2023-03-29T08:28:36.720Z,100719.19
2023-03-29T08:31:03.492Z,100715.03
2023-03-29T08:33:30.506Z,100717.19
2023-03-29T08:36:17.637Z,100710.88
2023-03-29T08:38:45.389Z,100686.03
2023-03-29T08:41:44.392Z,100701.91
2023-03-29T08:44:17.635Z,100685.13
2023-03-29T08:47:04.357Z,100700.28
2023-03-29T08:49:37.021Z,100695.41
2023-03-29T08:52:12.058Z,100699.16
2023-03-29T08:54:43.819Z,100702.91
2023-03-29T08:57:17.502Z,100684.00
2023-03-29T08:59:51.436Z,100692.31
2023-03-29T09:02:22.675Z,100696.56
2023-03-29T09:04:52.970Z,100660.56
2023-03-29T09:07:35.138Z,100695.00
2023-03-29T09:10:02.096Z,100686.75
2023-03-29T09:12:51.978Z,100693.53
2023-03-29T09:15:19.523Z,100698.31
2023-03-29T09:18:13.988Z,100650.53
2023-03-29T09:20:59.483Z,100695.38
2023-03-29T09:24:10.191Z,100636.88
2023-03-29T09:26:56.162Z,100693.91
2023-03-29T09:29:41.326Z,100695.16
2023-03-29T09:32:16.883Z,100656.72
2023-03-29T09:34:44.886Z,100626.03
2023-03-29T09:37:23.023Z,100679.53
2023-03-29T09:39:52.985Z,100685.03
2023-03-29T09:42:21.604Z,100673.13
2023-03-29T09:44:50.864Z,100696.47
2023-03-29T09:47:28.257Z,100682.06
2023-03-29T09:50:23.135Z,100698.53
2023-03-29T09:52:54.261Z,100693.97
2023-03-29T09:55:32.198Z,100667.66
2023-03-29T09:58:24.552Z,100689.16
2023-03-29T10:00:53.785Z,100679.84
2023-03-29T10:03:25.249Z,100694.38
2023-03-29T10:06:00.273Z,100688.28
2023-03-29T10:08:28.946Z,100680.78
2023-03-29T10:10:58.486Z,100677.75
2023-03-29T10:13:32.341Z,100638.03
2023-03-29T10:16:02.196Z,100669.25
2023-03-29T10:18:30.833Z,100669.06
2023-03-29T10:21:02.885Z,100673.41
2023-03-29T10:23:31.734Z,100655.34
2023-03-29T10:25:58.345Z,100662.03
2023-03-29T10:28:26.250Z,100608.28
2023-03-29T10:30:54.106Z,100653.16
2023-03-29T10:33:21.935Z,100641.06
2023-03-29T10:35:48.686Z,100626.75
2023-03-29T10:38:19.309Z,100630.81
2023-03-29T10:40:50.261Z,100614.13
2023-03-29T10:43:19.764Z,100630.44
2023-03-29T10:45:50.838Z,100594.91
2023-03-29T10:48:17.775Z,100620.44
2023-03-29T10:50:48.976Z,100602.38
2023-03-29T10:53:19.151Z,100611.31
2023-03-29T10:55:59.013Z,100603.06
2023-03-29T10:58:48.293Z,100585.44
2023-03-29T11:01:21.649Z,100594.22
2023-03-29T11:04:13.556Z,100590.91
2023-03-29T11:07:12.237Z,100600.88
2023-03-29T11:09:45.181Z,100558.19
2023-03-29T11:12:33.926Z,100597.41
2023-03-29T11:15:15.781Z,100599.97
2023-03-29T11:18:00.898Z,100590.91
2023-03-29T11:20:29.115Z,100605.03
2023-03-29T11:23:46.150Z,100598.94
2023-03-29T11:26:29.354Z,100594.88
2023-03-29T11:29:02.703Z,100596.19
2023-03-29T11:31:29.192Z,100586.56
2023-03-29T11:33:56.170Z,100602.78
2023-03-29T11:36:55.126Z,100601.28
2023-03-29T11:39:40.926Z,100582.09
2023-03-29T11:42:11.709Z,100598.63
2023-03-29T11:44:38.438Z,100583.38
2023-03-29T11:47:15.566Z,100594.13
2023-03-29T11:49:54.369Z,100595.75
2023-03-29T11:52:36.017Z,100585.22
2023-03-29T11:55:15.451Z,100588.63
2023-03-29T11:57:49.787Z,100580.69
2023-03-29T12:00:19.850Z,100575.47
2023-03-29T12:03:06.717Z,100567.03
2023-03-29T12:05:48.293Z,100558.25
2023-03-29T12:08:17.640Z,100575.78
2023-03-29T12:10:48.364Z,100569.16
2023-03-29T12:13:15.019Z,100560.28
2023-03-29T12:15:43.853Z,100548.88
2023-03-29T12:18:32.117Z,100554.63
2023-03-29T12:21:00.479Z,100550.75
2023-03-29T12:23:30.695Z,100554.47
2023-03-29T12:26:10.693Z,100546.69
2023-03-29T12:29:05.358Z,100548.31
2023-03-29T12:31:57.416Z,100549.28
2023-03-29T12:34:51.694Z,100552.38
2023-03-29T12:37:47.253Z,100550.75
2023-03-29T12:40:43.120Z,100556.44
2023-03-29T12:43:33.017Z,100548.00
2023-03-29T12:46:19.995Z,100548.69
2023-03-29T12:48:49.077Z,100549.50
2023-03-29T12:51:23.986Z,100548.69
2023-03-29T12:53:54.926Z,100522.88
2023-03-29T12:56:23.514Z,100528.25
2023-03-29T12:58:59.508Z,100540.25
2023-03-29T13:01:27.024Z,100529.25
2023-03-29T13:04:13.726Z,100541.59
2023-03-29T13:06:46.528Z,100534.63
2023-03-29T13:09:24.213Z,100537.88
2023-03-29T13:12:27.639Z,100538.97
2023-03-29T13:15:01.958Z,100518.06
2023-03-29T13:17:50.022Z,100500.91
2023-03-29T13:20:25.933Z,100523.44
2023-03-29T13:23:17.981Z,100523.44
2023-03-29T13:26:09.416Z,100534.44
2023-03-29T13:28:44.328Z,100525.06
2023-03-29T13:31:35.367Z,100526.84
2023-03-29T13:34:01.875Z,100531.81
2023-03-29T13:36:39.175Z,100529.13
2023-03-29T13:39:07.022Z,100542.03
2023-03-29T13:41:54.274Z,100527.03
2023-03-29T13:44:27.229Z,100528.28
2023-03-29T13:47:03.925Z,100528.72
2023-03-29T13:49:31.648Z,100518.00
2023-03-29T13:52:03.223Z,100526.94
2023-03-29T13:54:31.380Z,100529.19
2023-03-29T13:57:17.784Z,100529.06
2023-03-29T13:59:51.736Z,100517.25
2023-03-29T14:02:28.751Z,100508.84
2023-03-29T14:04:55.995Z,100520.38
2023-03-29T14:07:26.244Z,100516.97
2023-03-29T14:09:52.971Z,100513.41
2023-03-29T14:12:20.063Z,100513.44
2023-03-29T14:14:58.135Z,100484.59
2023-03-29T14:17:25.674Z,100467.09
2023-03-29T14:19:52.249Z,100481.84
2023-03-29T14:22:19.851Z,100490.13
2023-03-29T14:24:51.551Z,100489.19
2023-03-29T14:27:19.085Z,100488.06
2023-03-29T14:29:46.950Z,100468.81
2023-03-29T14:32:29.292Z,100463.28
2023-03-29T14:34:56.088Z,100467.19
2023-03-29T14:37:25.313Z,100497.00
2023-03-29T14:39:51.981Z,100491.78
2023-03-29T14:42:22.928Z,100447.97
2023-03-29T14:44:50.185Z,100475.56
2023-03-29T14:47:21.344Z,100483.69
2023-03-29T14:49:47.932Z,100468.44
2023-03-29T14:52:14.714Z,100469.44
2023-03-29T14:54:43.404Z,100463.66
2023-03-29T14:57:18.426Z,100452.91
2023-03-29T15:00:14.896Z,100457.34
2023-03-29T15:02:49.010Z,100451.03
2023-03-29T15:05:39.505Z,100444.22
2023-03-29T15:08:11.893Z,100413.09
2023-03-29T15:10:38.829Z,100415.03
2023-03-29T15:13:06.710Z,100400.78
2023-03-29T15:15:34.609Z,100404.50
2023-03-29T15:18:02.043Z,100415.69
2023-03-29T15:20:31.530Z,100402.44
2023-03-29T15:23:04.571Z,100420.88
2023-03-29T15:25:36.355Z,100407.28
2023-03-29T15:28:03.333Z,100397.56
2023-03-29T15:30:45.075Z,100421.69
2023-03-29T15:33:22.972Z,100399.50
2023-03-29T15:35:51.354Z,100401.72
2023-03-29T15:38:18.421Z,100382.25
2023-03-29T15:40:45.222Z,100425.91
2023-03-29T15:43:11.957Z,100431.88
2023-03-29T15:45:38.604Z,100424.59
2023-03-29T15:48:33.615Z,100414.13
2023-03-29T15:51:03.209Z,100418.13
2023-03-29T15:53:32.287Z,100363.53
2023-03-29T15:56:00.011Z,100337.66
2023-03-29T15:58:29.021Z,100388.63
2023-03-29T16:01:37.596Z,100406.81
2023-03-29T16:04:05.975Z,100388.50
2023-03-29T16:06:33.411Z,100399.84
2023-03-29T16:09:00.454Z,100378.31
2023-03-29T16:11:28.315Z,100392.59
2023-03-29T16:13:55.773Z,100380.25
2023-03-29T16:16:22.596Z,100390.19
2023-03-29T16:18:49.272Z,100376.09
2023-03-29T16:21:18.164Z,100383.41
2023-03-29T16:23:45.920Z,100362.66
2023-03-29T16:26:14.066Z,100374.47
2023-03-29T16:28:41.014Z,100378.38
2023-03-29T16:31:11.963Z,100379.19
2023-03-29T16:33:39.355Z,100354.22
2023-03-29T16:36:06.770Z,100366.38
2023-03-29T16:38:34.146Z,100366.50
2023-03-29T16:41:01.561Z,100354.53
2023-03-29T16:43:28.242Z,100321.13
2023-03-29T16:45:54.831Z,100359.38
2023-03-29T16:48:21.803Z,100340.47
2023-03-29T16:50:49.469Z,100341.91
2023-03-29T16:53:18.182Z,100346.44
2023-03-29T16:55:47.807Z,100338.97
2023-03-29T16:58:15.260Z,100342.25
2023-03-29T17:00:42.083Z,100335.47
2023-03-29T17:03:08.920Z,100337.41
2023-03-29T17:05:39.887Z,100319.91
2023-03-29T17:08:06.890Z,100298.53
2023-03-29T17:10:33.614Z,100326.25
2023-03-29T17:13:00.821Z,100324.94
2023-03-29T17:15:27.566Z,100319.91
2023-03-29T17:17:54.476Z,100319.91
2023-03-29T17:20:21.227Z,100326.88
2023-03-29T17:22:51.512Z,100312.47
2023-03-29T17:25:18.608Z,100307.59
2023-03-29T17:27:46.109Z,100302.44
2023-03-29T17:30:13.017Z,100299.03
2023-03-29T17:32:41.577Z,100291.41
2023-03-29T17:35:09.475Z,100309.34
2023-03-29T17:37:36.343Z,100298.03
2023-03-29T17:40:11.566Z,100297.72
2023-03-29T17:42:38.293Z,100306.59
2023-03-29T17:45:05.507Z,100307.09
2023-03-29T17:47:32.124Z,100281.06
2023-03-29T17:49:59.364Z,100283.13
2023-03-29T17:52:26.296Z,100276.50
2023-03-29T17:54:52.905Z,100305.00
2023-03-29T17:57:19.624Z,100305.00
2023-03-29T17:59:46.305Z,100287.69
2023-03-29T18:02:20.631Z,100297.25
2023-03-29T18:04:47.408Z,100276.19
2023-03-29T18:07:15.445Z,100287.19
2023-03-29T18:09:42.505Z,100292.53
2023-03-29T18:12:09.140Z,100286.56
2023-03-29T18:14:36.050Z,100279.41
2023-03-29T18:17:02.867Z,100287.66
2023-03-29T18:19:29.651Z,100261.06
2023-03-29T18:21:56.420Z,100292.69
2023-03-29T18:24:23.124Z,100303.69
2023-03-29T18:26:49.687Z,100240.47
2023-03-29T18:29:16.385Z,100310.81
2023-03-29T18:31:43.866Z,100310.16
2023-03-29T18:34:10.563Z,100304.63
2023-03-29T18:36:37.547Z,100306.28
2023-03-29T18:39:07.153Z,100304.34
2023-03-29T18:41:34.224Z,100309.19
2023-03-29T18:44:01.492Z,100303.53
2023-03-29T18:46:31.273Z,100297.56
2023-03-29T18:49:01.436Z,100299.50
2023-03-29T18:51:28.319Z,100299.84
2023-03-29T18:53:55.507Z,100303.72
2023-03-29T18:56:22.487Z,100292.72
2023-03-29T18:58:49.619Z,100290.78
2023-03-29T19:01:16.813Z,100280.91
2023-03-29T19:03:43.704Z,100279.94
2023-03-29T19:06:11.784Z,100267.13
2023-03-29T19:08:40.523Z,100276.72
2023-03-29T19:11:08.476Z,100270.06
2023-03-29T19:13:35.450Z,100249.00
2023-03-29T19:16:02.703Z,100270.38
2023-03-29T19:18:29.503Z,100265.84
2023-03-29T19:20:57.053Z,100268.94
2023-03-29T19:23:26.041Z,100268.13
2023-03-29T19:25:53.823Z,100255.34
2023-03-29T19:28:20.580Z,100249.97
2023-03-29T19:30:47.342Z,100248.84
2023-03-29T19:33:14.637Z,100248.19
2023-03-29T19:35:41.547Z,100248.84
2023-03-29T19:38:08.266Z,100230.22
2023-03-29T19:40:34.955Z,100238.19
2023-03-29T19:43:02.046Z,100243.50
2023-03-29T19:45:29.221Z,100234.75
2023-03-29T19:48:02.864Z,100242.84
2023-03-29T19:50:31.613Z,100236.06
2023-03-29T19:52:59.521Z,100241.25
2023-03-29T19:55:29.733Z,100233.00
2023-03-29T19:57:56.447Z,100225.56
2023-03-29T20:00:25.040Z,100219.56
2023-03-29T20:02:54.392Z,100218.09
2023-03-29T20:05:21.533Z,100217.59
2023-03-29T20:07:48.254Z,100215.03
2023-03-29T20:10:14.990Z,100212.75
2023-03-29T20:12:41.759Z,100198.34
2023-03-29T20:15:09.122Z,100187.84
2023-03-29T20:17:35.841Z,100196.59
2023-03-29T20:20:06.551Z,100187.00
2023-03-29T20:22:33.144Z,100160.97
2023-03-29T20:24:59.705Z,100180.06
2023-03-29T20:27:29.168Z,100184.13
2023-03-29T20:29:56.052Z,100171.66
2023-03-29T20:32:22.680Z,100175.41
2023-03-29T20:34:49.407Z,100166.16
2023-03-29T20:37:16.077Z,100172.00
2023-03-29T20:39:43.084Z,100174.59
2023-03-29T20:42:09.681Z,100176.03
2023-03-29T20:44:36.644Z,100155.31
2023-03-29T20:47:04.873Z,100157.75
2023-03-29T20:49:37.562Z,100163.72
2023-03-29T20:52:07.978Z,100162.13
2023-03-29T20:54:35.531Z,100158.41
2023-03-29T20:57:02.176Z,100148.03
2023-03-29T20:59:29.732Z,100156.25
2023-03-29T21:01:56.665Z,100148.66
2023-03-29T21:04:23.352Z,100149.66
2023-03-29T21:06:50.361Z,100144.78
2023-03-29T21:09:19.181Z,100138.34
2023-03-29T21:11:45.908Z,100137.69
2023-03-29T21:14:12.585Z,100121.81
2023-03-29T21:16:42.362Z,100136.03
2023-03-29T21:19:09.755Z,100113.41
2023-03-29T21:21:36.420Z,100125.69
2023-03-29T21:24:03.731Z,100121.03
2023-03-29T21:26:30.630Z,100112.63
2023-03-29T21:29:00.323Z,100116.63
2023-03-29T21:31:27.778Z,100109.38
2023-03-29T21:33:56.524Z,100100.47
2023-03-29T21:36:26.324Z,100098.72
2023-03-29T21:38:53.025Z,100077.34
2023-03-29T21:41:19.735Z,100089.47
2023-03-29T21:43:46.376Z,100093.69
2023-03-29T21:46:16.385Z,100084.47
2023-03-29T21:48:43.103Z,100088.00
2023-03-29T21:51:09.687Z,100085.09
2023-03-29T21:53:36.621Z,100092.56
2023-03-29T21:56:05.990Z,100099.50
2023-03-29T21:58:32.648Z,100078.78
2023-03-29T22:00:59.278Z,100099.00
2023-03-29T22:03:25.910Z,100095.31
2023-03-29T22:05:59.798Z,100088.19
2023-03-29T22:08:29.407Z,100095.63
2023-03-29T22:11:08.088Z,100093.34
2023-03-29T22:13:35.162Z,100090.78
2023-03-29T22:16:03.580Z,100099.53
2023-03-29T22:18:44.195Z,100098.50
2023-03-29T22:21:18.634Z,100096.78
2023-03-29T22:23:46.760Z,100104.00
2023-03-29T22:26:14.365Z,100105.69
2023-03-29T22:28:41.631Z,100107.09
2023-03-29T22:31:12.529Z,100107.91
2023-03-29T22:33:39.653Z,100098.03
2023-03-29T22:36:16.337Z,100109.50
2023-03-29T22:38:43.638Z,100111.28
2023-03-29T22:41:10.278Z,100108.38
2023-03-29T22:43:37.113Z,100102.88
2023-03-29T22:46:05.310Z,100100.13
2023-03-29T22:48:31.896Z,100102.09
2023-03-29T22:50:58.615Z,100098.38
2023-03-29T22:53:25.617Z,100114.69
2023-03-29T22:55:52.180Z,100111.47
2023-03-29T22:58:18.680Z,100108.22
2023-03-29T23:00:45.487Z,100117.63
2023-03-29T23:03:12.090Z,100118.41
2023-03-29T23:05:38.834Z,100127.31
2023-03-29T23:08:06.814Z,100119.38
2023-03-29T23:10:33.571Z,100123.25
2023-03-29T23:13:10.331Z,100122.94
2023-03-29T23:15:37.719Z,100112.59
2023-03-29T23:18:04.715Z,100102.25
2023-03-29T23:20:34.994Z,100097.56
2023-03-29T23:23:02.443Z,100085.28
2023-03-29T23:25:29.983Z,100082.34
2023-03-29T23:27:56.573Z,100108.56
2023-03-29T23:30:23.341Z,100101.44
2023-03-29T23:32:50.164Z,100101.59
2023-03-29T23:35:16.924Z,100092.38
2023-03-29T23:37:43.507Z,100102.88
2023-03-29T23:40:14.054Z,100103.22
2023-03-29T23:42:41.119Z,100096.59
2023-03-29T23:45:08.916Z,100086.38
2023-03-29T23:47:35.699Z,100089.47
2023-03-29T23:50:02.396Z,100078.78
2023-03-29T23:52:30.114Z,100069.94
2023-03-29T23:54:56.688Z,100052.28
2023-03-29T23:57:23.537Z,100071.81
2023-03-29T23:59:52.606Z,100056.81
